Gainesville, Missouri
Current Conditions -  °F | °C
As of 7:53 PM on Monday 24 Nov 2014 (Local Time) from KBPK Reporting Station
Clear Clear  
Wind Chill:   Ceiling: Unl
Heat Index:   Visibility: 10mi
Dew Point: -4°   Wind: 0mph
Humidity: 47%   Direction: NA
Pressure: 30"   Gusts: NA
Location:  36.6°N, 92.43°W
Report Text: KBPK 250153Z AUTO 00000KT 10SM CLR 07/M04 A3000 RMK AO2 SLP160 T00671039
Loading
Personal Weather Stations






























Interactive Weather Map New forecast layout! Learn more

10-Day Weather Forecast

Advertisements
Track Severe Weather on mobile